AU-0036 weather

New Norcia airstrip
New Norcia, Western Australia, Australia

Public forecast

Using degrees Celsius for public forecast. Weather courtesy of forecast.io.

Closest aviation weather report (METAR) to New Norcia airstrip

Closest report is RAAF Base Pearce, 43.3 nm (80.3 km) SSW. Retrieved 2019/10/20 23:30 UTC (0 seconds ago):

YPEA 202330Z 19002KT 9999 OVC021 16/13 Q1020 NOSIG

Closest aviation forecast (TAF) to New Norcia airstrip

Closest forecast is RAAF Base Pearce, 43.3 nm (80.3 km) SSW. Retrieved 2019/10/20 18:00 UTC (5 hours ago):

TAF YPEA 201612Z 2018/2112 23005KT 9999 BKN020 FM210300 24010KT 9999 SCT040